createdAt,value
2023-05-12T00:00:42.771Z,100.00
2023-05-12T00:03:09.362Z,100.00
2023-05-12T00:05:35.817Z,100.00
2023-05-12T00:08:02.230Z,100.00
2023-05-12T00:10:28.745Z,100.00
2023-05-12T00:12:55.626Z,100.00
2023-05-12T00:15:22.593Z,100.00
2023-05-12T00:17:49.482Z,100.00
2023-05-12T00:20:15.914Z,100.00
2023-05-12T00:22:42.282Z,100.00
2023-05-12T00:25:09.005Z,100.00
2023-05-12T00:27:35.457Z,100.00
2023-05-12T00:30:01.917Z,100.00
2023-05-12T00:32:29.600Z,100.00
2023-05-12T00:34:57.169Z,100.00
2023-05-12T00:37:23.673Z,100.00
2023-05-12T00:39:50.132Z,100.00
2023-05-12T00:42:16.579Z,100.00
2023-05-12T00:44:42.971Z,100.00
2023-05-12T00:47:09.567Z,100.00
2023-05-12T00:49:36.794Z,100.00
2023-05-12T00:52:03.591Z,100.00
2023-05-12T00:54:30.390Z,100.00
2023-05-12T00:56:57.560Z,100.00
2023-05-12T00:59:23.943Z,100.00
2023-05-12T01:01:50.479Z,100.00
2023-05-12T01:04:17.227Z,100.00
2023-05-12T01:06:49.367Z,100.00
2023-05-12T01:09:16.310Z,100.00
2023-05-12T01:11:42.757Z,100.00
2023-05-12T01:14:09.298Z,100.00
2023-05-12T01:16:41.113Z,100.00
2023-05-12T01:19:14.929Z,100.00
2023-05-12T01:21:41.399Z,100.00
2023-05-12T01:24:10.510Z,100.00
2023-05-12T01:26:37.147Z,100.00
2023-05-12T01:29:04.975Z,100.00
2023-05-12T01:31:32.493Z,100.00
2023-05-12T01:33:58.930Z,100.00
2023-05-12T01:36:25.407Z,100.00
2023-05-12T01:38:51.836Z,100.00
2023-05-12T01:41:18.180Z,100.00
2023-05-12T01:43:44.565Z,100.00
2023-05-12T01:46:11.074Z,100.00
2023-05-12T01:48:37.808Z,100.00
2023-05-12T01:51:07.659Z,100.00
2023-05-12T01:53:34.095Z,100.00
2023-05-12T01:56:00.871Z,100.00
2023-05-12T01:58:27.292Z,100.00
2023-05-12T02:00:53.652Z,100.00
2023-05-12T02:03:20.148Z,100.00
2023-05-12T02:05:46.610Z,100.00
2023-05-12T02:08:13.003Z,100.00
2023-05-12T02:10:39.466Z,100.00
2023-05-12T02:13:06.201Z,100.00
2023-05-12T02:15:32.724Z,100.00
2023-05-12T02:17:59.201Z,100.00
2023-05-12T02:20:25.751Z,100.00
2023-05-12T02:22:52.165Z,100.00
2023-05-12T02:25:18.640Z,100.00
2023-05-12T02:27:45.060Z,100.00
2023-05-12T02:30:11.680Z,100.00
2023-05-12T02:32:38.207Z,100.00
2023-05-12T02:35:05.031Z,100.00
2023-05-12T02:37:31.626Z,100.00
2023-05-12T02:39:58.046Z,100.00
2023-05-12T02:42:24.479Z,100.00
2023-05-12T02:44:50.838Z,100.00
2023-05-12T02:47:17.238Z,100.00
2023-05-12T02:49:43.641Z,100.00
2023-05-12T02:52:10.087Z,100.00
2023-05-12T02:54:36.755Z,100.00
2023-05-12T02:57:06.568Z,100.00
2023-05-12T02:59:33.074Z,100.00
2023-05-12T03:01:59.605Z,100.00
2023-05-12T03:04:26.138Z,100.00
2023-05-12T03:06:52.621Z,100.00
2023-05-12T03:09:19.070Z,100.00
2023-05-12T03:11:45.759Z,100.00
2023-05-12T03:14:12.203Z,100.00
2023-05-12T03:16:38.615Z,100.00
2023-05-12T03:19:05.497Z,100.00
2023-05-12T03:21:32.051Z,100.00
2023-05-12T03:23:58.410Z,100.00
2023-05-12T03:26:24.904Z,100.00
2023-05-12T03:28:51.319Z,100.00
2023-05-12T03:31:17.876Z,100.00
2023-05-12T03:33:44.263Z,100.00
2023-05-12T03:36:10.723Z,100.00
2023-05-12T03:38:37.139Z,100.00
2023-05-12T03:41:07.154Z,100.00
2023-05-12T03:43:34.292Z,100.00
2023-05-12T03:46:00.824Z,100.00
2023-05-12T03:48:27.373Z,100.00
2023-05-12T03:50:53.789Z,100.00
2023-05-12T03:53:20.679Z,100.00
2023-05-12T03:55:47.222Z,100.00
2023-05-12T03:58:13.634Z,100.00
2023-05-12T04:00:40.010Z,100.00
2023-05-12T04:03:06.470Z,100.00
2023-05-12T04:05:33.000Z,100.00
2023-05-12T04:07:59.417Z,100.00
2023-05-12T04:10:25.764Z,100.00
2023-05-12T04:12:52.350Z,100.00
2023-05-12T04:15:19.145Z,100.00
2023-05-12T04:17:45.603Z,100.00
2023-05-12T04:20:12.309Z,100.00
2023-05-12T04:22:38.917Z,100.00
2023-05-12T04:25:05.660Z,100.00
2023-05-12T04:27:32.076Z,100.00
2023-05-12T04:29:58.507Z,100.00
2023-05-12T04:32:24.889Z,100.00
2023-05-12T04:34:51.644Z,100.00
2023-05-12T04:37:18.057Z,100.00
2023-05-12T04:39:44.441Z,100.00
2023-05-12T04:42:10.870Z,100.00
2023-05-12T04:44:37.303Z,100.00
2023-05-12T04:47:03.813Z,100.00
2023-05-12T04:49:30.298Z,100.00
2023-05-12T04:51:56.694Z,100.00
2023-05-12T04:54:23.131Z,100.00
2023-05-12T04:56:49.603Z,100.00
2023-05-12T04:59:16.045Z,100.00
2023-05-12T05:01:42.829Z,100.00
2023-05-12T05:04:09.283Z,100.00
2023-05-12T05:06:35.696Z,100.00
2023-05-12T05:09:02.118Z,100.00
2023-05-12T05:11:28.531Z,100.00
2023-05-12T05:13:55.045Z,100.00
2023-05-12T05:16:22.078Z,100.00
2023-05-12T05:18:48.540Z,100.00
2023-05-12T05:21:15.166Z,100.00
2023-05-12T05:23:42.343Z,100.00
2023-05-12T05:26:09.209Z,100.00
2023-05-12T05:28:36.170Z,100.00
2023-05-12T05:31:03.109Z,100.00
2023-05-12T05:33:29.606Z,100.00
2023-05-12T05:35:56.131Z,100.00
2023-05-12T05:38:22.590Z,100.00
2023-05-12T05:40:53.874Z,100.00
2023-05-12T05:43:21.029Z,100.00
2023-05-12T05:45:49.720Z,100.00
2023-05-12T05:48:16.430Z,100.00
2023-05-12T05:50:42.981Z,100.00
2023-05-12T05:53:09.483Z,100.00
2023-05-12T05:55:35.913Z,100.00
2023-05-12T05:58:02.336Z,100.00
2023-05-12T06:00:28.777Z,100.00
2023-05-12T06:02:55.381Z,100.00
2023-05-12T06:05:22.056Z,100.00
2023-05-12T06:07:48.663Z,100.00
2023-05-12T06:10:15.083Z,100.00
2023-05-12T06:12:41.599Z,100.00
2023-05-12T06:15:08.596Z,100.00
2023-05-12T06:17:35.197Z,100.00
2023-05-12T06:20:02.012Z,100.00
2023-05-12T06:22:28.555Z,100.00
2023-05-12T06:24:54.914Z,100.00
2023-05-12T06:27:21.306Z,100.00
2023-05-12T06:29:47.717Z,100.00
2023-05-12T06:32:14.270Z,100.00
2023-05-12T06:34:40.847Z,100.00
2023-05-12T06:37:07.225Z,100.00
2023-05-12T06:39:33.680Z,100.00
2023-05-12T06:42:00.209Z,100.00
2023-05-12T06:44:26.795Z,100.00
2023-05-12T06:46:53.476Z,100.00
2023-05-12T06:49:19.967Z,100.00
2023-05-12T06:51:46.535Z,100.00
2023-05-12T06:54:12.892Z,100.00
2023-05-12T06:56:39.296Z,100.00
2023-05-12T06:59:05.753Z,100.00
2023-05-12T07:01:32.658Z,100.00
2023-05-12T07:03:59.988Z,100.00
2023-05-12T07:06:29.389Z,100.00
2023-05-12T07:08:56.140Z,100.00
2023-05-12T07:11:22.876Z,100.00
2023-05-12T07:13:50.540Z,100.00
2023-05-12T07:16:18.443Z,100.00
2023-05-12T07:18:45.613Z,100.00
2023-05-12T07:21:13.178Z,100.00
2023-05-12T07:23:39.692Z,100.00
2023-05-12T07:26:07.201Z,100.00
2023-05-12T07:28:38.057Z,100.00
2023-05-12T07:31:05.743Z,100.00
2023-05-12T07:33:43.535Z,100.00
2023-05-12T07:36:10.088Z,100.00
2023-05-12T07:38:37.018Z,100.00
2023-05-12T07:41:03.659Z,100.00
2023-05-12T07:43:30.237Z,100.00
2023-05-12T07:45:59.586Z,100.00
2023-05-12T07:48:26.057Z,100.00
2023-05-12T07:50:53.018Z,100.00
2023-05-12T07:53:19.596Z,100.00
2023-05-12T07:55:46.416Z,98.81
2023-05-12T07:58:12.870Z,99.35
2023-05-12T08:00:39.497Z,97.89
2023-05-12T08:03:07.530Z,98.92
2023-05-12T08:05:34.145Z,99.15
2023-05-12T08:08:00.631Z,97.03
2023-05-12T08:10:29.740Z,97.25
2023-05-12T08:12:56.638Z,98.43
2023-05-12T08:15:23.264Z,95.14
2023-05-12T08:17:49.729Z,96.56
2023-05-12T08:20:16.206Z,94.36
2023-05-12T08:22:42.913Z,94.36
2023-05-12T08:25:17.527Z,93.92
2023-05-12T08:27:44.061Z,93.58
2023-05-12T08:30:11.110Z,91.44
2023-05-12T08:32:37.701Z,92.60
2023-05-12T08:35:04.874Z,90.75
2023-05-12T08:37:33.720Z,91.09
2023-05-12T08:40:01.146Z,90.99
2023-05-12T08:42:44.294Z,91.25
2023-05-12T08:45:11.682Z,88.78
2023-05-12T08:47:38.826Z,87.39
2023-05-12T08:50:05.961Z,89.13
2023-05-12T08:52:33.604Z,90.84
2023-05-12T08:55:01.019Z,88.94
2023-05-12T08:57:29.768Z,88.02
2023-05-12T08:59:59.169Z,87.11
2023-05-12T09:02:29.404Z,85.73
2023-05-12T09:05:01.535Z,85.60
2023-05-12T09:07:27.973Z,81.78
2023-05-12T09:09:58.729Z,82.10
2023-05-12T09:12:30.886Z,80.72
2023-05-12T09:15:05.006Z,81.56
2023-05-12T09:17:31.443Z,78.71
2023-05-12T09:19:57.899Z,80.47
2023-05-12T09:22:31.382Z,80.15
2023-05-12T09:24:57.820Z,80.10
2023-05-12T09:27:26.448Z,82.58
2023-05-12T09:29:59.242Z,83.19
2023-05-12T09:32:34.359Z,82.33
2023-05-12T09:35:06.402Z,79.55
2023-05-12T09:37:34.523Z,77.67
2023-05-12T09:40:05.931Z,77.73
2023-05-12T09:42:33.754Z,78.65
2023-05-12T09:45:09.304Z,77.92
2023-05-12T09:47:40.031Z,77.51
2023-05-12T09:50:08.472Z,76.77
2023-05-12T09:52:39.264Z,78.51
2023-05-12T09:55:10.780Z,80.21
2023-05-12T09:57:44.645Z,80.26
2023-05-12T10:00:33.135Z,78.61
2023-05-12T10:03:09.831Z,72.69
2023-05-12T10:05:39.240Z,73.79
2023-05-12T10:08:07.786Z,73.28
2023-05-12T10:10:34.322Z,73.56
2023-05-12T10:13:01.971Z,72.92
2023-05-12T10:15:28.845Z,71.45
2023-05-12T10:17:55.655Z,71.54
2023-05-12T10:20:23.176Z,69.73
2023-05-12T10:22:49.911Z,73.04
2023-05-12T10:25:17.824Z,73.47
2023-05-12T10:27:44.539Z,70.96
2023-05-12T10:30:12.248Z,72.41
2023-05-12T10:32:38.677Z,69.26
2023-05-12T10:35:13.011Z,68.88
2023-05-12T10:37:39.657Z,69.70
2023-05-12T10:40:07.047Z,67.93
2023-05-12T10:42:41.742Z,67.35
2023-05-12T10:45:19.936Z,68.59
2023-05-12T10:47:47.728Z,68.94
2023-05-12T10:50:14.843Z,69.62
2023-05-12T10:52:53.707Z,69.79
2023-05-12T10:55:34.633Z,66.86
2023-05-12T10:58:12.579Z,66.81
2023-05-12T11:00:45.797Z,66.08
2023-05-12T11:03:18.676Z,65.15
2023-05-12T11:05:46.886Z,65.14
2023-05-12T11:08:14.301Z,64.40
2023-05-12T11:10:42.452Z,63.05
2023-05-12T11:13:09.394Z,64.03
2023-05-12T11:15:35.886Z,62.77
2023-05-12T11:18:03.581Z,65.58
2023-05-12T11:20:31.050Z,64.30
2023-05-12T11:22:57.962Z,63.33
2023-05-12T11:25:27.129Z,62.97
2023-05-12T11:27:53.865Z,60.29
2023-05-12T11:30:20.660Z,63.48
2023-05-12T11:32:47.054Z,61.86
2023-05-12T11:35:14.999Z,62.85
2023-05-12T11:37:43.442Z,65.04
2023-05-12T11:40:13.842Z,62.22
2023-05-12T11:42:41.371Z,61.65
2023-05-12T11:45:18.678Z,63.28
2023-05-12T11:47:45.302Z,64.45
2023-05-12T11:50:11.918Z,62.54
2023-05-12T11:52:39.335Z,62.16
2023-05-12T11:55:06.425Z,62.00
2023-05-12T11:57:36.157Z,61.54
2023-05-12T12:00:05.368Z,61.25
2023-05-12T12:02:32.691Z,63.52
2023-05-12T12:05:00.747Z,63.38
2023-05-12T12:07:35.111Z,62.35
2023-05-12T12:10:15.507Z,59.72
2023-05-12T12:12:42.651Z,58.50
2023-05-12T12:15:10.312Z,58.26
2023-05-12T12:17:37.124Z,59.80
2023-05-12T12:20:04.110Z,60.70
2023-05-12T12:22:34.144Z,62.35
2023-05-12T12:25:01.390Z,61.03
2023-05-12T12:27:27.901Z,61.02
2023-05-12T12:29:54.391Z,59.11
2023-05-12T12:32:20.824Z,59.95
2023-05-12T12:34:48.910Z,58.42
2023-05-12T12:37:16.140Z,61.60
2023-05-12T12:39:42.729Z,57.16
2023-05-12T12:42:09.519Z,58.05
2023-05-12T12:44:35.939Z,59.77
2023-05-12T12:47:02.330Z,61.43
2023-05-12T12:49:28.802Z,61.70
2023-05-12T12:51:55.904Z,63.44
2023-05-12T12:54:22.688Z,57.83
2023-05-12T12:56:49.123Z,60.48
2023-05-12T12:59:15.561Z,60.08
2023-05-12T13:01:41.923Z,57.38
2023-05-12T13:04:08.394Z,58.28
2023-05-12T13:06:34.827Z,60.05
2023-05-12T13:09:01.554Z,61.70
2023-05-12T13:11:28.149Z,58.38
2023-05-12T13:13:54.604Z,58.74
2023-05-12T13:16:21.172Z,57.96
2023-05-12T13:18:47.604Z,59.75
2023-05-12T13:21:14.269Z,58.49
2023-05-12T13:23:41.118Z,58.28
2023-05-12T13:26:07.527Z,60.81
2023-05-12T13:28:33.873Z,58.15
2023-05-12T13:31:00.503Z,59.43
2023-05-12T13:33:26.940Z,56.64
2023-05-12T13:35:55.020Z,57.83
2023-05-12T13:38:22.285Z,56.06
2023-05-12T13:40:48.814Z,57.58
2023-05-12T13:43:15.262Z,60.04
2023-05-12T13:45:41.891Z,58.18
2023-05-12T13:48:08.308Z,61.78
2023-05-12T13:50:34.840Z,58.22
2023-05-12T13:53:01.264Z,58.43
2023-05-12T13:55:27.722Z,57.18
2023-05-12T13:57:54.239Z,56.70
2023-05-12T14:00:20.912Z,59.47
2023-05-12T14:02:47.425Z,58.38
2023-05-12T14:05:13.962Z,56.97
2023-05-12T14:07:42.490Z,56.76
2023-05-12T14:10:09.420Z,55.69
2023-05-12T14:12:36.923Z,52.18
2023-05-12T14:15:19.828Z,53.70
2023-05-12T14:17:49.974Z,55.91
2023-05-12T14:20:16.541Z,56.03
2023-05-12T14:22:42.916Z,54.37
2023-05-12T14:25:09.582Z,54.29
2023-05-12T14:27:36.008Z,53.67
2023-05-12T14:30:02.575Z,54.71
2023-05-12T14:32:29.039Z,54.21
2023-05-12T14:34:55.471Z,54.55
2023-05-12T14:37:21.854Z,55.59
2023-05-12T14:39:48.319Z,54.26
2023-05-12T14:42:14.928Z,54.25
2023-05-12T14:44:41.370Z,57.55
2023-05-12T14:47:09.101Z,53.96
2023-05-12T14:49:35.815Z,53.79
2023-05-12T14:52:02.803Z,53.16
2023-05-12T14:54:29.460Z,52.90
2023-05-12T14:56:56.526Z,51.50
2023-05-12T14:59:23.028Z,52.94
2023-05-12T15:01:49.453Z,51.17
2023-05-12T15:04:15.867Z,52.04
2023-05-12T15:06:42.346Z,51.77
2023-05-12T15:09:09.076Z,53.50
2023-05-12T15:11:36.863Z,54.71
2023-05-12T15:14:04.567Z,52.12
2023-05-12T15:16:33.089Z,51.41
2023-05-12T15:18:59.728Z,55.70
2023-05-12T15:21:26.401Z,55.57
2023-05-12T15:23:52.855Z,54.15
2023-05-12T15:26:32.061Z,52.57
2023-05-12T15:29:00.496Z,52.29
2023-05-12T15:31:29.421Z,51.46
2023-05-12T15:33:56.933Z,51.20
2023-05-12T15:36:23.431Z,49.46
2023-05-12T15:38:49.800Z,49.99
2023-05-12T15:41:16.251Z,50.72
2023-05-12T15:43:42.766Z,51.33
2023-05-12T15:46:10.613Z,54.25
2023-05-12T15:48:37.439Z,60.37
2023-05-12T15:51:04.157Z,64.65
2023-05-12T15:53:31.120Z,66.52
2023-05-12T15:56:04.699Z,68.27
2023-05-12T15:58:31.567Z,69.28
2023-05-12T16:00:58.250Z,72.61
2023-05-12T16:03:24.891Z,76.35
2023-05-12T16:05:51.977Z,73.91
2023-05-12T16:08:18.852Z,80.65
2023-05-12T16:10:45.298Z,82.60
2023-05-12T16:13:11.776Z,85.03
2023-05-12T16:15:38.252Z,79.57
2023-05-12T16:18:06.418Z,80.59
2023-05-12T16:20:34.142Z,75.87
2023-05-12T16:23:00.657Z,78.78
2023-05-12T16:25:27.234Z,80.06
2023-05-12T16:27:53.697Z,80.99
2023-05-12T16:30:20.582Z,82.27
2023-05-12T16:32:47.388Z,80.02
2023-05-12T16:35:14.213Z,82.37
2023-05-12T16:37:41.138Z,80.61
2023-05-12T16:40:08.097Z,81.02
2023-05-12T16:42:34.465Z,80.34
2023-05-12T16:45:01.059Z,83.37
2023-05-12T16:47:27.613Z,81.99
2023-05-12T16:49:54.141Z,82.04
2023-05-12T16:52:20.742Z,83.13
2023-05-12T16:54:47.708Z,83.14
2023-05-12T16:57:14.157Z,79.10
2023-05-12T16:59:40.584Z,75.95
2023-05-12T17:02:08.361Z,76.04
2023-05-12T17:04:34.996Z,74.52
2023-05-12T17:07:01.451Z,76.45
2023-05-12T17:09:27.906Z,75.94
2023-05-12T17:11:54.458Z,76.83
2023-05-12T17:14:21.061Z,76.01
2023-05-12T17:16:47.585Z,76.38
2023-05-12T17:19:14.595Z,75.72
2023-05-12T17:21:42.177Z,76.26
2023-05-12T17:24:08.992Z,76.07
2023-05-12T17:26:35.737Z,75.79
2023-05-12T17:29:02.483Z,75.33
2023-05-12T17:31:29.170Z,75.93
2023-05-12T17:33:55.732Z,75.05
2023-05-12T17:36:22.228Z,74.99
2023-05-12T17:38:50.533Z,74.68
2023-05-12T17:41:17.120Z,80.90
2023-05-12T17:43:43.570Z,78.33
2023-05-12T17:46:10.206Z,77.72
2023-05-12T17:48:38.315Z,75.89
2023-05-12T17:51:05.302Z,74.65
2023-05-12T17:53:32.405Z,73.70
2023-05-12T17:55:59.482Z,73.70
2023-05-12T17:58:26.346Z,73.62
2023-05-12T18:00:53.081Z,73.12
2023-05-12T18:03:23.673Z,72.83
2023-05-12T18:05:51.521Z,74.75
2023-05-12T18:08:18.270Z,75.25
2023-05-12T18:10:45.051Z,75.83
2023-05-12T18:13:11.749Z,75.22
2023-05-12T18:15:38.284Z,74.95
2023-05-12T18:18:05.150Z,74.32
2023-05-12T18:20:31.611Z,73.92
2023-05-12T18:22:58.019Z,73.08
2023-05-12T18:25:24.427Z,72.78
2023-05-12T18:27:51.318Z,71.08
2023-05-12T18:30:17.794Z,72.57
2023-05-12T18:32:44.222Z,76.73
2023-05-12T18:35:10.713Z,69.63
2023-05-12T18:37:37.231Z,71.28
2023-05-12T18:40:05.042Z,67.45
2023-05-12T18:42:31.547Z,66.57
2023-05-12T18:44:57.957Z,70.93
2023-05-12T18:47:24.396Z,70.65
2023-05-12T18:49:50.972Z,74.64
2023-05-12T18:52:17.536Z,74.39
2023-05-12T18:54:47.391Z,72.15
2023-05-12T18:57:15.325Z,75.24
2023-05-12T18:59:41.719Z,74.19
2023-05-12T19:02:08.411Z,76.86
2023-05-12T19:04:34.945Z,77.49
2023-05-12T19:07:01.555Z,77.78
2023-05-12T19:09:27.933Z,79.78
2023-05-12T19:11:54.413Z,80.18
2023-05-12T19:14:21.225Z,79.01
2023-05-12T19:16:47.675Z,79.50
2023-05-12T19:19:14.225Z,82.32
2023-05-12T19:21:40.880Z,82.50
2023-05-12T19:24:08.358Z,83.51
2023-05-12T19:26:34.897Z,83.66
2023-05-12T19:29:02.064Z,82.89
2023-05-12T19:31:28.754Z,85.34
2023-05-12T19:33:55.228Z,84.09
2023-05-12T19:36:21.603Z,84.31
2023-05-12T19:38:48.086Z,86.25
2023-05-12T19:41:14.496Z,87.25
2023-05-12T19:43:41.064Z,88.49
2023-05-12T19:46:07.620Z,88.02
2023-05-12T19:48:34.164Z,90.49
2023-05-12T19:51:00.672Z,89.22
2023-05-12T19:53:27.109Z,84.79
2023-05-12T19:55:53.727Z,82.67
2023-05-12T19:58:20.230Z,81.50
2023-05-12T20:00:46.633Z,80.42
2023-05-12T20:03:13.100Z,79.39
2023-05-12T20:05:41.032Z,79.61
2023-05-12T20:08:07.486Z,79.78
2023-05-12T20:10:34.374Z,79.34
2023-05-12T20:13:03.553Z,78.88
2023-05-12T20:15:31.203Z,79.08
2023-05-12T20:17:57.843Z,78.75
2023-05-12T20:20:24.409Z,78.53
2023-05-12T20:22:51.283Z,77.75
2023-05-12T20:25:17.957Z,78.47
2023-05-12T20:27:45.143Z,78.18
2023-05-12T20:30:12.560Z,79.07
2023-05-12T20:32:39.048Z,78.86
2023-05-12T20:35:05.850Z,79.90
2023-05-12T20:37:33.059Z,80.49
2023-05-12T20:39:59.542Z,79.59
2023-05-12T20:42:25.982Z,79.63
2023-05-12T20:44:52.446Z,79.09
2023-05-12T20:47:19.215Z,78.15
2023-05-12T20:49:45.662Z,78.91
2023-05-12T20:52:12.125Z,78.86
2023-05-12T20:54:38.586Z,78.46
2023-05-12T20:57:05.229Z,78.08
2023-05-12T20:59:31.800Z,77.33
2023-05-12T21:01:58.280Z,76.35
2023-05-12T21:04:24.790Z,76.10
2023-05-12T21:06:53.297Z,76.36
2023-05-12T21:09:20.289Z,75.99
2023-05-12T21:11:47.159Z,75.05
2023-05-12T21:14:13.597Z,75.82
2023-05-12T21:16:40.024Z,75.01
2023-05-12T21:19:06.617Z,74.74
2023-05-12T21:21:33.179Z,75.08
2023-05-12T21:23:59.638Z,75.37
2023-05-12T21:26:27.175Z,75.29
2023-05-12T21:28:53.520Z,74.95
2023-05-12T21:31:20.010Z,75.45
2023-05-12T21:33:47.547Z,75.50
2023-05-12T21:36:13.942Z,74.06
2023-05-12T21:38:40.409Z,74.92
2023-05-12T21:41:06.842Z,73.98
2023-05-12T21:43:33.341Z,73.92
2023-05-12T21:46:06.401Z,74.75
2023-05-12T21:48:33.402Z,74.12
2023-05-12T21:51:01.854Z,74.89
2023-05-12T21:53:29.060Z,74.95
2023-05-12T21:55:55.597Z,74.95
2023-05-12T21:58:23.549Z,75.33
2023-05-12T22:00:53.307Z,75.04
2023-05-12T22:03:25.045Z,75.50
2023-05-12T22:05:51.753Z,74.97
2023-05-12T22:08:19.034Z,75.42
2023-05-12T22:10:45.581Z,74.51
2023-05-12T22:13:11.952Z,75.56
2023-05-12T22:15:38.446Z,74.27
2023-05-12T22:18:05.057Z,74.75
2023-05-12T22:20:31.526Z,74.86
2023-05-12T22:22:57.983Z,74.85
2023-05-12T22:25:24.372Z,73.71
2023-05-12T22:27:50.784Z,72.74
2023-05-12T22:30:18.791Z,72.30
2023-05-12T22:32:45.522Z,72.69
2023-05-12T22:35:11.970Z,73.67
2023-05-12T22:37:38.572Z,73.01
2023-05-12T22:40:05.541Z,72.11
2023-05-12T22:42:31.934Z,71.17
2023-05-12T22:44:58.403Z,71.13
2023-05-12T22:47:24.932Z,71.06
2023-05-12T22:49:51.363Z,70.57
2023-05-12T22:52:17.793Z,71.92
2023-05-12T22:54:44.251Z,71.01
2023-05-12T22:57:10.646Z,70.86
2023-05-12T22:59:37.114Z,71.36
2023-05-12T23:02:03.575Z,71.52
2023-05-12T23:04:29.995Z,71.11
2023-05-12T23:06:56.461Z,71.06
2023-05-12T23:09:22.881Z,70.75
2023-05-12T23:11:49.226Z,69.39
2023-05-12T23:14:15.660Z,70.43
2023-05-12T23:16:42.049Z,70.14
2023-05-12T23:19:08.569Z,71.27
2023-05-12T23:21:35.240Z,70.40
2023-05-12T23:24:01.715Z,72.15
2023-05-12T23:26:28.109Z,70.46
2023-05-12T23:28:54.527Z,70.62
2023-05-12T23:31:20.960Z,70.59
2023-05-12T23:33:47.401Z,70.27
2023-05-12T23:36:14.397Z,70.21
2023-05-12T23:38:41.115Z,70.01
2023-05-12T23:41:07.485Z,70.30
2023-05-12T23:43:33.849Z,69.70
2023-05-12T23:46:01.308Z,69.23
2023-05-12T23:48:28.451Z,69.69
2023-05-12T23:50:54.860Z,69.35
2023-05-12T23:53:22.057Z,69.10
2023-05-12T23:55:48.483Z,67.27
2023-05-12T23:58:14.883Z,67.63
